createdAt,value
2023-04-16T00:00:54.046Z,4.1634
2023-04-16T00:01:56.962Z,4.1240
2023-04-16T00:02:59.446Z,4.2042
2023-04-16T00:04:01.989Z,4.2444
2023-04-16T00:05:04.415Z,3.8588
2023-04-16T00:06:07.015Z,4.1260
2023-04-16T00:07:09.514Z,4.3324
2023-04-16T00:08:12.116Z,3.8948
2023-04-16T00:09:14.685Z,3.8642
2023-04-16T00:10:17.339Z,3.8541
2023-04-16T00:11:19.839Z,4.0187
2023-04-16T00:12:22.483Z,3.7713
2023-04-16T00:13:24.993Z,3.8514
2023-04-16T00:14:27.610Z,4.1334
2023-04-16T00:15:30.155Z,3.7512
2023-04-16T00:16:32.849Z,3.6929
2023-04-16T00:17:35.336Z,3.8669
2023-04-16T00:18:38.251Z,3.9690
2023-04-16T00:19:40.496Z,3.6401
2023-04-16T00:20:43.105Z,3.9765
2023-04-16T00:21:45.653Z,3.8794
2023-04-16T00:22:48.328Z,4.0003
2023-04-16T00:23:50.823Z,3.9737
2023-04-16T00:24:53.438Z,3.8255
2023-04-16T00:25:55.990Z,3.8713
2023-04-16T00:26:58.746Z,3.8218
2023-04-16T00:28:01.227Z,3.7031
2023-04-16T00:29:04.031Z,3.6865
2023-04-16T00:30:06.413Z,3.7582
2023-04-16T00:31:09.047Z,3.6596
2023-04-16T00:32:11.569Z,3.7271
2023-04-16T00:33:14.250Z,3.6899
2023-04-16T00:34:16.741Z,3.5543
2023-04-16T00:35:19.341Z,3.5711
2023-04-16T00:36:21.901Z,3.4719
2023-04-16T00:37:25.682Z,3.9341
2023-04-16T00:38:27.064Z,3.5095
2023-04-16T00:39:29.694Z,3.4609
2023-04-16T00:40:32.239Z,3.4337
2023-04-16T00:41:34.848Z,4.5005
2023-04-16T00:42:37.404Z,3.6696
2023-04-16T00:43:40.016Z,3.4133
2023-04-16T00:44:42.586Z,3.4982
2023-04-16T00:45:45.250Z,3.4335
2023-04-16T00:46:47.800Z,3.3310
2023-04-16T00:47:50.363Z,3.1175
2023-04-16T00:48:53.184Z,3.1407
2023-04-16T00:49:55.538Z,3.4915
2023-04-16T00:50:58.070Z,3.8255
2023-04-16T00:52:00.930Z,3.3354
2023-04-16T00:53:03.243Z,3.3155
2023-04-16T00:54:05.833Z,2.9982
2023-04-16T00:55:08.393Z,3.4330
2023-04-16T00:56:11.023Z,3.0579
2023-04-16T00:57:13.623Z,3.3402
2023-04-16T00:58:16.369Z,3.5540
2023-04-16T00:59:18.958Z,3.2244
2023-04-16T01:00:21.348Z,3.3052
2023-04-16T01:01:24.004Z,3.1648
2023-04-16T01:02:26.637Z,3.6066
2023-04-16T01:03:29.391Z,3.1756
2023-04-16T01:04:31.731Z,3.8665
2023-04-16T01:05:34.209Z,3.3885
2023-04-16T01:06:36.813Z,3.4876
2023-04-16T01:07:39.391Z,3.1128
2023-04-16T01:08:42.005Z,3.2543
2023-04-16T01:09:44.535Z,3.7071
2023-04-16T01:10:47.138Z,2.8875
2023-04-16T01:11:49.698Z,3.2729
2023-04-16T01:12:52.305Z,3.1127
2023-04-16T01:13:55.097Z,3.2785
2023-04-16T01:14:57.472Z,3.4859
2023-04-16T01:16:00.101Z,3.5385
2023-04-16T01:17:02.654Z,2.9580
2023-04-16T01:18:05.492Z,3.2487
2023-04-16T01:20:10.357Z,2.7603
2023-04-16T01:21:12.966Z,3.2500
2023-04-16T01:22:15.524Z,2.8870
2023-04-16T01:23:18.129Z,3.1683
2023-04-16T01:24:20.688Z,3.4281
2023-04-16T01:25:23.551Z,3.3040
2023-04-16T01:26:25.856Z,3.2716
2023-04-16T01:27:28.459Z,2.9998
2023-04-16T01:28:31.028Z,3.0880
2023-04-16T01:29:33.669Z,2.9178
2023-04-16T01:30:36.200Z,3.0670
2023-04-16T01:31:38.836Z,3.2675
2023-04-16T01:32:41.399Z,3.0970
2023-04-16T01:33:43.967Z,3.1520
2023-04-16T01:34:46.524Z,3.2211
2023-04-16T01:35:49.152Z,2.9494
2023-04-16T01:36:51.688Z,2.9524
2023-04-16T01:37:54.684Z,3.0692
2023-04-16T01:38:56.867Z,3.1352
2023-04-16T01:39:59.473Z,3.1651
2023-04-16T01:41:02.039Z,2.9481
2023-04-16T01:42:04.786Z,2.8910
2023-04-16T01:43:07.195Z,2.7912
2023-04-16T01:44:09.802Z,2.9158
2023-04-16T01:45:12.364Z,2.9571
2023-04-16T01:46:15.004Z,2.7043
2023-04-16T01:47:17.532Z,2.9723
2023-04-16T01:48:20.137Z,2.8643
2023-04-16T01:49:22.697Z,2.7379
2023-04-16T01:50:25.469Z,3.0262
2023-04-16T01:51:27.872Z,3.1599
2023-04-16T01:52:30.497Z,3.2097
2023-04-16T01:53:33.844Z,3.0976
2023-04-16T01:54:35.846Z,2.9573
2023-04-16T01:55:38.201Z,3.0836
2023-04-16T01:56:40.807Z,2.9354
2023-04-16T01:57:43.529Z,2.5861
2023-04-16T01:58:45.980Z,3.0974
2023-04-16T01:59:48.538Z,2.7653
2023-04-16T02:00:51.163Z,2.7784
2023-04-16T02:01:53.981Z,3.0795
2023-04-16T02:02:56.424Z,2.8564
2023-04-16T02:03:58.937Z,2.9477
2023-04-16T02:05:01.476Z,2.6464
2023-04-16T02:06:04.042Z,2.4585
2023-04-16T02:07:06.788Z,2.8624
2023-04-16T02:08:09.214Z,2.8650
2023-04-16T02:09:11.912Z,3.0265
2023-04-16T02:10:14.658Z,2.9674
2023-04-16T02:11:16.979Z,2.7146
2023-04-16T02:12:19.542Z,3.0361
2023-04-16T02:13:22.385Z,2.7271
2023-04-16T02:14:24.717Z,2.6950
2023-04-16T02:15:27.325Z,2.8453
2023-04-16T02:16:29.908Z,2.6371
2023-04-16T02:17:32.587Z,2.7053
2023-04-16T02:19:37.649Z,2.5911
2023-04-16T02:20:40.215Z,2.7870
2023-04-16T02:21:42.859Z,2.9032
2023-04-16T02:22:45.383Z,3.0331
2023-04-16T02:23:47.991Z,2.5334
2023-04-16T02:24:50.542Z,2.5807
2023-04-16T02:25:53.158Z,2.6779
2023-04-16T02:26:55.712Z,2.5384
2023-04-16T02:27:58.321Z,2.8392
2023-04-16T02:29:01.144Z,2.8436
2023-04-16T02:30:03.496Z,2.5208
2023-04-16T02:31:06.044Z,2.4101
2023-04-16T02:32:08.964Z,2.4852
2023-04-16T02:33:11.210Z,2.7782
2023-04-16T02:34:13.818Z,2.6005
2023-04-16T02:35:16.382Z,2.4414
2023-04-16T02:36:19.341Z,2.7370
2023-04-16T02:37:21.549Z,2.6248
2023-04-16T02:38:24.202Z,2.7112
2023-04-16T02:39:26.734Z,2.4798
2023-04-16T02:40:29.314Z,2.5177
2023-04-16T02:41:31.895Z,2.5869
2023-04-16T02:42:34.477Z,2.5170
2023-04-16T02:43:37.044Z,2.2719
2023-04-16T02:44:39.659Z,2.4074
2023-04-16T02:45:42.250Z,2.3914
2023-04-16T02:46:44.812Z,2.5280
2023-04-16T02:47:47.410Z,2.2749
2023-04-16T02:48:49.973Z,2.3800
2023-04-16T02:49:52.524Z,2.4121
2023-04-16T02:50:55.129Z,2.5188
2023-04-16T02:53:00.305Z,2.2700
2023-04-16T02:54:02.860Z,2.5241
2023-04-16T02:55:05.766Z,2.3078
2023-04-16T02:56:08.065Z,2.5381
2023-04-16T02:57:10.633Z,2.4394
2023-04-16T02:58:13.210Z,2.4330
2023-04-16T02:59:15.805Z,2.4934
2023-04-16T03:00:18.352Z,2.2777
2023-04-16T03:01:21.000Z,2.4108
2023-04-16T03:02:23.601Z,2.1681
2023-04-16T03:03:26.284Z,2.1891
2023-04-16T03:04:49.675Z,2.4183
2023-04-16T03:05:31.264Z,2.3802
2023-04-16T03:06:33.907Z,2.3001
2023-04-16T03:07:36.438Z,2.4720
2023-04-16T03:08:39.053Z,2.3237
2023-04-16T03:09:41.695Z,2.3170
2023-04-16T03:10:44.202Z,2.2958
2023-04-16T03:11:46.765Z,2.4641
2023-04-16T03:12:49.372Z,2.2268
2023-04-16T03:13:51.930Z,2.3695
2023-04-16T03:14:54.539Z,2.1325
2023-04-16T03:15:57.111Z,2.0526
2023-04-16T03:16:59.952Z,2.2436
2023-04-16T03:18:02.355Z,2.4239
2023-04-16T03:19:04.881Z,1.9574
2023-04-16T03:20:07.435Z,1.9501
2023-04-16T03:21:10.035Z,2.0973
2023-04-16T03:22:12.596Z,1.9280
2023-04-16T03:23:15.194Z,2.1577
2023-04-16T03:24:17.755Z,2.3745
2023-04-16T03:25:20.364Z,2.2077
2023-04-16T03:26:22.915Z,1.9505
2023-04-16T03:27:25.525Z,2.0819
2023-04-16T03:28:28.092Z,1.9058
2023-04-16T03:29:30.691Z,2.0555
2023-04-16T03:30:33.264Z,2.1932
2023-04-16T03:31:35.901Z,2.1884
2023-04-16T03:32:38.476Z,2.2374
2023-04-16T03:33:41.025Z,2.2050
2023-04-16T03:34:43.586Z,2.0221
2023-04-16T03:35:46.203Z,2.3081
2023-04-16T03:36:48.757Z,2.0404
2023-04-16T03:37:51.358Z,2.1284
2023-04-16T03:38:53.914Z,2.2034
2023-04-16T03:39:56.524Z,2.2659
2023-04-16T03:40:59.079Z,2.3228
2023-04-16T03:42:01.687Z,1.9075
2023-04-16T03:43:04.234Z,2.0538
2023-04-16T03:44:06.841Z,2.2941
2023-04-16T03:45:09.502Z,2.4579
2023-04-16T03:46:12.040Z,2.1628
2023-04-16T03:47:14.573Z,1.9860
2023-04-16T03:48:17.195Z,2.1448
2023-04-16T03:49:19.738Z,2.2070
2023-04-16T03:50:22.335Z,1.9623
2023-04-16T03:51:24.889Z,2.1038
2023-04-16T03:52:27.499Z,1.9219
2023-04-16T03:53:30.054Z,1.9654
2023-04-16T03:54:32.672Z,2.1442
2023-04-16T03:55:35.216Z,2.1895
2023-04-16T03:56:37.799Z,2.1875
2023-04-16T03:57:40.412Z,1.8798
2023-04-16T03:58:42.987Z,1.7402
2023-04-16T03:59:45.569Z,1.7388
2023-04-16T04:00:48.280Z,2.0610
2023-04-16T04:01:50.860Z,2.0050
2023-04-16T04:02:53.437Z,2.4209
2023-04-16T04:03:56.126Z,1.9837
2023-04-16T04:04:58.667Z,1.8016
2023-04-16T04:06:01.051Z,1.8570
2023-04-16T04:07:03.676Z,1.9851
2023-04-16T04:08:06.394Z,2.3132
2023-04-16T04:09:09.037Z,2.1367
2023-04-16T04:10:11.687Z,2.0863
2023-04-16T04:11:13.945Z,2.1647
2023-04-16T04:12:16.553Z,1.7893
2023-04-16T04:13:19.102Z,2.0587
2023-04-16T04:14:21.718Z,1.8490
2023-04-16T04:15:24.259Z,1.9928
2023-04-16T04:16:26.908Z,1.9614
2023-04-16T04:17:29.449Z,2.0467
2023-04-16T04:18:32.038Z,1.9461
2023-04-16T04:19:34.609Z,2.1816
2023-04-16T04:20:37.204Z,1.8055
2023-04-16T04:21:39.751Z,2.0251
2023-04-16T04:22:42.354Z,2.0179
2023-04-16T04:23:44.920Z,1.7586
2023-04-16T04:24:47.522Z,1.8370
2023-04-16T04:25:50.206Z,1.9743
2023-04-16T04:26:52.678Z,1.9095
2023-04-16T04:27:55.237Z,2.1587
2023-04-16T04:28:58.091Z,2.0431
2023-04-16T04:30:00.422Z,1.5534
2023-04-16T04:31:03.022Z,1.9498
2023-04-16T04:32:05.613Z,2.1101
2023-04-16T04:33:08.570Z,1.6436
2023-04-16T04:34:10.797Z,2.2389
2023-04-16T04:35:13.411Z,2.2561
2023-04-16T04:36:15.953Z,1.7793
2023-04-16T04:37:18.569Z,1.7684
2023-04-16T04:38:21.126Z,1.9190
2023-04-16T04:39:23.732Z,1.9839
2023-04-16T04:40:26.295Z,2.0253
2023-04-16T04:41:28.919Z,1.8045
2023-04-16T04:42:31.459Z,1.7959
2023-04-16T04:43:34.057Z,1.7318
2023-04-16T04:44:36.622Z,1.9643
2023-04-16T04:45:39.388Z,1.7255
2023-04-16T04:46:41.773Z,1.7507
2023-04-16T04:47:44.398Z,2.0697
2023-04-16T04:48:46.961Z,2.1384
2023-04-16T04:49:49.544Z,1.6435
2023-04-16T04:50:52.102Z,1.8056
2023-04-16T04:51:54.713Z,2.0737
2023-04-16T04:52:57.444Z,1.9444
2023-04-16T04:53:59.870Z,1.6252
2023-04-16T04:55:02.448Z,1.7628
2023-04-16T04:56:11.792Z,1.7547
2023-04-16T04:57:08.590Z,2.0935
2023-04-16T04:58:10.196Z,1.8937
2023-04-16T04:59:12.759Z,2.1285
2023-04-16T05:00:15.365Z,1.8477
2023-04-16T05:01:17.947Z,1.8638
2023-04-16T05:02:20.807Z,1.7390
2023-04-16T05:03:23.180Z,1.6834
2023-04-16T05:04:25.705Z,1.7394
2023-04-16T05:05:28.285Z,1.7050
2023-04-16T05:06:30.911Z,1.8004
2023-04-16T05:07:33.418Z,1.9801
2023-04-16T05:08:36.253Z,1.7947
2023-04-16T05:09:38.594Z,1.8491
2023-04-16T05:10:41.195Z,1.5979
2023-04-16T05:11:43.754Z,1.7980
2023-04-16T05:12:48.243Z,1.5590
2023-04-16T05:13:48.917Z,2.0614
2023-04-16T05:14:51.531Z,1.5672
2023-04-16T05:15:54.317Z,1.5345
2023-04-16T05:16:56.785Z,1.4802
2023-04-16T05:17:59.291Z,1.6046
2023-04-16T05:19:01.872Z,1.5059
2023-04-16T05:20:04.399Z,1.5042
2023-04-16T05:21:07.018Z,1.9025
2023-04-16T05:22:09.573Z,1.5368
2023-04-16T05:23:12.446Z,1.6829
2023-04-16T05:24:15.147Z,1.6169
2023-04-16T05:25:17.359Z,1.7892
2023-04-16T05:26:20.411Z,1.6007
2023-04-16T05:27:22.513Z,1.9710
2023-04-16T05:28:25.069Z,1.6685
2023-04-16T05:29:27.695Z,1.7930
2023-04-16T05:30:30.247Z,1.6561
2023-04-16T05:31:32.840Z,1.6740
2023-04-16T05:32:35.811Z,1.6002
2023-04-16T05:33:38.013Z,1.6339
2023-04-16T05:34:40.559Z,1.7063
2023-04-16T05:35:43.189Z,2.0555
2023-04-16T05:36:45.724Z,1.5519
2023-04-16T05:37:48.337Z,1.5776
2023-04-16T05:38:50.885Z,1.6318
2023-04-16T05:39:53.488Z,1.4919
2023-04-16T05:40:56.057Z,1.5363
2023-04-16T05:41:58.666Z,1.6246
2023-04-16T05:43:01.226Z,1.8237
2023-04-16T05:44:03.834Z,1.6186
2023-04-16T05:45:06.399Z,1.6690
2023-04-16T05:46:09.072Z,1.6902
2023-04-16T05:47:11.560Z,1.5461
2023-04-16T05:48:14.158Z,1.7049
2023-04-16T05:50:19.330Z,1.4923
2023-04-16T05:51:21.876Z,1.5293
2023-04-16T05:52:24.477Z,1.6260
2023-04-16T05:53:28.260Z,1.7818
2023-04-16T05:54:29.656Z,1.7504
2023-04-16T05:55:32.221Z,1.5329
2023-04-16T05:56:34.813Z,1.4610
2023-04-16T05:57:37.376Z,1.5540
2023-04-16T05:58:39.988Z,1.5155
2023-04-16T05:59:42.545Z,1.6347
2023-04-16T06:00:45.151Z,1.6779
2023-04-16T06:01:47.778Z,1.4111
2023-04-16T06:02:50.456Z,1.5124
2023-04-16T06:03:53.015Z,1.5456
2023-04-16T06:04:55.489Z,1.7062
2023-04-16T06:05:58.177Z,1.5946
2023-04-16T06:07:00.645Z,1.4332
2023-04-16T06:08:03.207Z,1.7540
2023-04-16T06:09:05.816Z,1.5941
2023-04-16T06:10:08.377Z,1.4337
2023-04-16T06:11:10.983Z,1.5685
2023-04-16T06:12:13.549Z,1.6165
2023-04-16T06:13:16.159Z,1.4500
2023-04-16T06:14:18.703Z,1.6040
2023-04-16T06:15:21.318Z,1.6341
2023-04-16T06:16:23.923Z,1.5041
2023-04-16T06:17:26.601Z,1.6436
2023-04-16T06:18:29.039Z,1.5595
2023-04-16T06:19:31.646Z,1.4738
2023-04-16T06:20:34.217Z,1.7101
2023-04-16T06:21:36.817Z,1.3010
2023-04-16T06:22:39.381Z,1.5572
2023-04-16T06:23:42.003Z,1.4040
2023-04-16T06:24:44.541Z,1.4648
2023-04-16T06:25:47.321Z,1.4955
2023-04-16T06:26:49.722Z,1.4804
2023-04-16T06:27:52.323Z,1.3641
2023-04-16T06:28:54.887Z,1.4205
2023-04-16T06:29:57.506Z,1.6230
2023-04-16T06:31:00.117Z,1.3869
2023-04-16T06:32:02.657Z,1.4736
2023-04-16T06:33:05.507Z,1.4234
2023-04-16T06:34:07.858Z,1.3402
2023-04-16T06:35:10.394Z,1.4970
2023-04-16T06:36:13.105Z,1.3233
2023-04-16T06:37:15.553Z,1.4137
2023-04-16T06:38:18.172Z,1.4154
2023-04-16T06:39:20.723Z,1.5076
2023-04-16T06:40:23.350Z,1.3164
2023-04-16T06:41:25.901Z,1.4306
2023-04-16T06:42:28.516Z,1.2850
2023-04-16T06:43:31.106Z,1.3449
2023-04-16T06:44:33.689Z,1.4033
2023-04-16T06:45:36.241Z,1.3033
2023-04-16T06:46:38.907Z,1.4145
2023-04-16T06:47:41.604Z,1.3218
2023-04-16T06:48:44.016Z,1.3882
2023-04-16T06:49:46.575Z,1.2498
2023-04-16T06:50:49.194Z,1.4463
2023-04-16T06:51:51.888Z,1.2552
2023-04-16T06:52:54.357Z,1.3333
2023-04-16T06:53:56.917Z,1.4657
2023-04-16T06:54:59.520Z,1.3539
2023-04-16T06:56:02.283Z,1.3304
2023-04-16T06:57:04.690Z,1.4781
2023-04-16T06:58:07.247Z,1.4016
2023-04-16T06:59:10.069Z,1.4708
2023-04-16T07:00:12.450Z,1.3692
2023-04-16T07:01:15.028Z,1.2529
2023-04-16T07:02:17.697Z,1.1608
2023-04-16T07:03:20.286Z,1.1699
2023-04-16T07:04:22.804Z,1.5946
2023-04-16T07:05:25.351Z,1.3830
2023-04-16T07:06:27.948Z,1.3611
2023-04-16T07:07:30.526Z,1.3973
2023-04-16T07:08:33.111Z,1.4035
2023-04-16T07:09:35.693Z,1.3052
2023-04-16T07:10:38.287Z,1.2558
2023-04-16T07:11:40.839Z,1.3457
2023-04-16T07:12:43.450Z,1.1831
2023-04-16T07:13:46.006Z,1.2205
2023-04-16T07:14:48.608Z,1.2487
2023-04-16T07:15:51.172Z,1.3709
2023-04-16T07:16:53.895Z,1.3575
2023-04-16T07:17:56.418Z,1.4985
2023-04-16T07:18:58.944Z,1.3377
2023-04-16T07:20:01.531Z,1.2455
2023-04-16T07:21:04.106Z,1.5673
2023-04-16T07:22:06.668Z,1.2215
2023-04-16T07:23:09.294Z,1.1984
2023-04-16T07:24:11.832Z,1.3775
2023-04-16T07:25:14.453Z,1.4788
2023-04-16T07:26:17.028Z,1.9139
2023-04-16T07:27:19.623Z,5.7665
2023-04-16T07:28:22.181Z,17.1535
2023-04-16T07:29:24.791Z,24.7523
2023-04-16T07:30:27.356Z,23.8241
2023-04-16T07:31:29.985Z,34.2578
2023-04-16T07:32:32.889Z,42.5086
2023-04-16T07:33:35.122Z,57.6343
2023-04-16T07:34:37.685Z,63.1754
2023-04-16T07:35:40.550Z,63.0456
2023-04-16T07:36:42.861Z,73.7290
2023-04-16T07:37:45.463Z,80.3528
2023-04-16T07:38:48.016Z,79.1938
2023-04-16T07:39:50.628Z,81.6966
2023-04-16T07:40:53.184Z,89.1917
2023-04-16T07:41:55.810Z,81.8127
2023-04-16T07:42:58.354Z,75.2573
2023-04-16T07:44:00.964Z,74.9895
2023-04-16T07:45:03.524Z,76.1783
2023-04-16T07:46:06.225Z,76.2415
2023-04-16T07:47:08.690Z,77.6820
2023-04-16T07:48:11.307Z,73.5776
2023-04-16T07:49:13.868Z,77.2577
2023-04-16T07:50:16.460Z,76.2241
2023-04-16T07:51:19.010Z,72.4800
2023-04-16T07:52:21.621Z,75.1815
2023-04-16T07:53:24.164Z,75.7738
2023-04-16T07:54:28.862Z,75.1152
2023-04-16T07:55:29.334Z,75.0541
2023-04-16T07:56:31.931Z,74.5901
2023-04-16T07:57:34.487Z,74.3577
2023-04-16T07:58:37.150Z,70.2831
2023-04-16T07:59:39.791Z,72.8016
2023-04-16T08:00:42.483Z,71.6953
2023-04-16T08:01:44.809Z,71.2714
2023-04-16T08:02:47.510Z,74.1170
2023-04-16T08:03:50.136Z,70.0325
2023-04-16T08:04:52.731Z,72.1928
2023-04-16T08:05:55.135Z,68.0508
2023-04-16T08:06:57.736Z,68.2071
2023-04-16T08:08:00.295Z,68.1602
2023-04-16T08:09:02.901Z,67.3941
2023-04-16T08:10:05.470Z,67.0929
2023-04-16T08:11:08.058Z,67.4918
2023-04-16T08:12:10.623Z,67.3170
2023-04-16T08:13:13.218Z,68.2113
2023-04-16T08:14:15.777Z,67.6841
2023-04-16T08:15:18.381Z,65.2564
2023-04-16T08:16:20.966Z,65.0453
2023-04-16T08:17:23.693Z,64.9927
2023-04-16T08:18:26.282Z,64.7761
2023-04-16T08:19:28.709Z,66.5748
2023-04-16T08:20:31.286Z,67.0304
2023-04-16T08:21:33.875Z,71.3164
2023-04-16T08:22:36.437Z,66.9992
2023-04-16T08:23:39.033Z,43.9443
2023-04-16T08:24:41.600Z,35.7300
2023-04-16T08:25:44.187Z,36.8073
2023-04-16T08:26:46.761Z,40.6673
2023-04-16T08:27:49.361Z,42.8098
2023-04-16T08:28:51.915Z,41.9621
2023-04-16T08:29:54.532Z,41.7419
2023-04-16T08:30:57.140Z,45.4530
2023-04-16T08:31:59.767Z,48.7292
2023-04-16T08:33:02.275Z,48.9119
2023-04-16T08:34:04.868Z,49.3010
2023-04-16T08:35:07.420Z,47.1640
2023-04-16T08:37:12.594Z,46.6151
2023-04-16T08:38:15.183Z,47.7545
2023-04-16T08:39:17.813Z,47.0683
2023-04-16T08:40:20.426Z,48.0201
2023-04-16T08:41:22.974Z,45.8071
2023-04-16T08:42:25.585Z,43.2277
2023-04-16T08:43:28.138Z,44.8351
2023-04-16T08:44:30.751Z,42.8592
2023-04-16T08:45:33.314Z,42.6966
2023-04-16T08:46:35.913Z,42.5906
2023-04-16T08:47:38.504Z,42.1706
2023-04-16T08:48:41.066Z,41.7320
2023-04-16T08:49:43.617Z,39.3373
2023-04-16T08:50:46.235Z,39.1743
2023-04-16T08:51:48.785Z,38.8193
2023-04-16T08:52:51.395Z,40.1780
2023-04-16T08:53:53.955Z,38.0211
2023-04-16T08:54:57.247Z,37.1230
2023-04-16T08:55:59.113Z,36.6125
2023-04-16T08:57:01.719Z,36.0107
2023-04-16T08:58:04.273Z,34.8198
2023-04-16T08:59:07.120Z,35.5422
2023-04-16T09:00:09.442Z,34.9579
2023-04-16T09:01:12.044Z,34.8414
2023-04-16T09:02:14.675Z,34.0224
2023-04-16T09:03:17.887Z,33.3804
2023-04-16T09:04:19.827Z,32.8217
2023-04-16T09:05:22.388Z,34.3190
2023-04-16T09:06:24.915Z,31.3050
2023-04-16T09:07:27.536Z,32.7352
2023-04-16T09:08:30.070Z,33.0430
2023-04-16T09:09:34.542Z,31.6860
2023-04-16T09:10:35.237Z,32.5033
2023-04-16T09:11:38.124Z,32.3016
2023-04-16T09:12:40.388Z,31.3909
2023-04-16T09:13:42.990Z,31.0571
2023-04-16T09:14:45.553Z,29.6882
2023-04-16T09:15:48.159Z,30.8840
2023-04-16T09:16:50.731Z,30.0288
2023-04-16T09:17:53.365Z,29.9728
2023-04-16T09:18:55.904Z,29.7782
2023-04-16T09:19:58.484Z,29.3776
2023-04-16T09:21:01.046Z,27.3551
2023-04-16T09:22:03.659Z,27.6962
2023-04-16T09:23:06.201Z,27.2003
2023-04-16T09:24:08.856Z,26.6216
2023-04-16T09:25:11.381Z,28.1864
2023-04-16T09:26:13.981Z,26.9150
2023-04-16T09:27:16.533Z,25.3956
2023-04-16T09:28:19.140Z,26.2381
2023-04-16T09:29:21.686Z,26.5334
2023-04-16T09:30:24.345Z,25.2830
2023-04-16T09:31:26.877Z,24.7145
2023-04-16T09:32:29.519Z,24.7640
2023-04-16T09:33:34.470Z,25.1531
2023-04-16T09:34:34.638Z,25.7690
2023-04-16T09:35:37.189Z,25.8075
2023-04-16T09:36:39.801Z,25.4626
2023-04-16T09:37:42.351Z,23.8429
2023-04-16T09:38:44.961Z,15.9967
2023-04-16T09:39:47.521Z,18.3074
2023-04-16T09:40:50.125Z,18.8594
2023-04-16T09:41:52.687Z,20.7284
2023-04-16T09:42:55.286Z,19.8903
2023-04-16T09:43:57.845Z,20.4166
2023-04-16T09:45:02.645Z,19.4820
2023-04-16T09:46:07.448Z,18.4051
2023-04-16T09:47:06.651Z,16.1547
2023-04-16T09:48:08.178Z,17.7232
2023-04-16T09:49:11.050Z,18.6538
2023-04-16T09:50:14.020Z,17.3375
2023-04-16T09:51:15.948Z,17.3187
2023-04-16T09:52:18.504Z,17.5889
2023-04-16T09:53:21.111Z,17.0724
2023-04-16T09:54:23.670Z,15.3244
2023-04-16T09:55:26.275Z,13.5828
2023-04-16T09:56:28.831Z,14.7241
2023-04-16T09:57:31.445Z,10.5855
2023-04-16T09:58:33.998Z,8.9001
2023-04-16T09:59:36.627Z,12.6323
2023-04-16T10:00:43.167Z,13.3958
2023-04-16T10:01:41.843Z,12.5094
2023-04-16T10:02:44.369Z,12.5359
2023-04-16T10:03:47.155Z,12.7286
2023-04-16T10:04:49.688Z,13.3948
2023-04-16T10:05:52.118Z,13.2236
2023-04-16T10:06:54.666Z,10.8430
2023-04-16T10:07:57.279Z,11.5097
2023-04-16T10:08:59.845Z,10.9873
2023-04-16T10:10:02.464Z,11.8941
2023-04-16T10:11:04.999Z,11.7520
2023-04-16T10:12:07.620Z,11.4690
2023-04-16T10:13:10.185Z,11.3927
2023-04-16T10:14:12.782Z,11.2782
2023-04-16T10:15:15.340Z,10.8699
2023-04-16T10:16:17.989Z,10.6814
2023-04-16T10:17:20.490Z,9.8764
2023-04-16T10:18:23.094Z,10.3695
2023-04-16T10:19:25.660Z,9.8083
2023-04-16T10:20:28.267Z,10.2330
2023-04-16T10:21:30.826Z,10.0644
2023-04-16T10:22:33.425Z,9.7313
2023-04-16T10:23:35.977Z,9.4910
2023-04-16T10:24:38.633Z,9.5955
2023-04-16T10:25:41.149Z,9.6607
2023-04-16T10:26:43.768Z,9.5688
2023-04-16T10:27:46.299Z,9.5617
2023-04-16T10:28:48.908Z,9.4832
2023-04-16T10:29:51.477Z,9.1868
2023-04-16T10:30:54.133Z,9.5956
2023-04-16T10:31:56.616Z,9.0292
2023-04-16T10:33:00.543Z,9.3953
2023-04-16T10:34:01.779Z,9.1601
2023-04-16T10:35:04.392Z,9.0984
2023-04-16T10:36:07.853Z,8.6454
2023-04-16T10:37:09.557Z,8.4939
2023-04-16T10:38:12.103Z,9.0628
2023-04-16T10:39:16.765Z,8.6712
2023-04-16T10:40:17.317Z,9.1071
2023-04-16T10:41:19.881Z,8.8681
2023-04-16T10:42:22.429Z,8.8388
2023-04-16T10:43:25.035Z,9.0269
2023-04-16T10:44:27.578Z,8.5278
2023-04-16T10:45:30.191Z,8.5748
2023-04-16T10:46:32.786Z,7.9431
2023-04-16T10:47:35.384Z,8.5461
2023-04-16T10:48:48.767Z,8.2902
2023-04-16T10:49:41.505Z,7.7017
2023-04-16T10:50:43.076Z,8.0191
2023-04-16T10:51:45.677Z,8.5264
2023-04-16T10:52:48.225Z,8.2643
2023-04-16T10:53:50.826Z,7.9122
2023-04-16T10:54:53.391Z,8.1225
2023-04-16T10:55:56.000Z,7.8656
2023-04-16T10:56:58.559Z,7.9655
2023-04-16T10:58:01.146Z,8.4440
2023-04-16T10:59:03.710Z,7.6926
2023-04-16T11:00:06.316Z,7.9600
2023-04-16T11:01:08.876Z,7.9481
2023-04-16T11:02:11.555Z,7.6398
2023-04-16T11:03:14.087Z,8.2925
2023-04-16T11:04:16.715Z,7.5555
2023-04-16T11:05:19.211Z,7.7542
2023-04-16T11:06:21.810Z,7.6692
2023-04-16T11:07:24.364Z,7.6939
2023-04-16T11:08:26.979Z,7.1919
2023-04-16T11:09:29.528Z,7.1575
2023-04-16T11:10:32.143Z,7.6708
2023-04-16T11:11:34.703Z,7.3614
2023-04-16T11:12:37.504Z,7.5703
2023-04-16T11:13:40.073Z,7.3102
2023-04-16T11:14:42.465Z,7.0144
2023-04-16T11:15:45.087Z,7.4120
2023-04-16T11:16:47.633Z,7.4176
2023-04-16T11:17:50.236Z,7.5340
2023-04-16T11:18:53.946Z,7.6655
2023-04-16T11:19:55.362Z,7.3311
2023-04-16T11:20:57.959Z,7.2871
2023-04-16T11:22:00.538Z,7.0054
2023-04-16T11:23:03.126Z,7.7244
2023-04-16T11:24:05.710Z,6.5897
2023-04-16T11:25:08.289Z,6.5504
2023-04-16T11:26:10.881Z,6.9186
2023-04-16T11:27:13.431Z,7.3879
2023-04-16T11:28:16.047Z,6.9627
2023-04-16T11:29:18.606Z,7.0484
2023-04-16T11:30:21.216Z,6.6843
2023-04-16T11:31:23.806Z,6.8048
2023-04-16T11:32:26.399Z,6.7256
2023-04-16T11:33:28.935Z,7.0009
2023-04-16T11:34:31.541Z,6.2018
2023-04-16T11:35:34.111Z,6.4318
2023-04-16T11:36:36.733Z,6.5067
2023-04-16T11:37:39.268Z,6.3117
2023-04-16T11:38:41.863Z,6.6137
2023-04-16T11:39:44.430Z,6.5743
2023-04-16T11:40:47.036Z,6.4520
2023-04-16T11:41:49.600Z,6.1227
2023-04-16T11:42:52.200Z,6.5185
2023-04-16T11:43:54.797Z,6.5119
2023-04-16T11:44:57.376Z,5.9413
2023-04-16T11:45:59.926Z,6.5996
2023-04-16T11:47:02.591Z,6.4041
2023-04-16T11:48:05.104Z,5.7903
2023-04-16T11:49:07.827Z,6.0098
2023-04-16T11:50:10.265Z,6.2682
2023-04-16T11:51:12.853Z,5.9136
2023-04-16T11:52:15.404Z,6.2281
2023-04-16T11:53:18.031Z,6.2656
2023-04-16T11:54:20.583Z,6.4714
2023-04-16T11:55:23.177Z,6.4145
2023-04-16T11:56:25.743Z,5.9908
2023-04-16T11:57:28.358Z,6.2442
2023-04-16T11:58:30.897Z,5.8344
2023-04-16T11:59:33.508Z,6.0237
2023-04-16T12:00:36.070Z,6.1589
2023-04-16T12:01:38.667Z,6.0814
2023-04-16T12:02:41.362Z,5.9978
2023-04-16T12:03:44.253Z,5.8156
2023-04-16T12:04:46.522Z,6.0603
2023-04-16T12:05:48.992Z,5.8310
2023-04-16T12:06:51.557Z,5.8880
2023-04-16T12:07:54.152Z,5.8221
2023-04-16T12:08:56.710Z,5.7964
2023-04-16T12:09:59.488Z,5.4263
2023-04-16T12:11:01.870Z,5.6343
2023-04-16T12:12:04.480Z,5.7843
2023-04-16T12:13:07.022Z,5.9149
2023-04-16T12:14:09.626Z,5.4611
2023-04-16T12:15:12.182Z,5.4657
2023-04-16T12:16:14.794Z,5.4739
2023-04-16T12:17:17.348Z,5.4139
2023-04-16T12:18:19.972Z,5.6929
2023-04-16T12:19:22.505Z,5.4145
2023-04-16T12:20:25.115Z,5.3926
2023-04-16T12:21:27.668Z,5.5310
2023-04-16T12:22:30.259Z,5.2345
2023-04-16T12:23:32.817Z,5.5918
2023-04-16T12:24:35.415Z,5.5387
2023-04-16T12:26:40.597Z,5.4874
2023-04-16T12:27:43.149Z,5.4197
2023-04-16T12:28:45.742Z,5.4102
2023-04-16T12:29:48.309Z,5.4987
2023-04-16T12:30:50.940Z,5.1701
2023-04-16T12:31:53.470Z,4.8653
2023-04-16T12:32:59.031Z,5.4478
2023-04-16T12:33:58.664Z,5.0430
2023-04-16T12:35:01.237Z,5.1581
2023-04-16T12:36:03.786Z,5.3038
2023-04-16T12:37:06.398Z,5.2202
2023-04-16T12:38:08.940Z,5.2181
2023-04-16T12:39:11.730Z,5.3776
2023-04-16T12:40:14.117Z,5.1537
2023-04-16T12:41:16.714Z,10.2432
2023-04-16T12:42:19.271Z,8.9554
2023-04-16T12:43:21.874Z,7.1593
2023-04-16T12:44:24.437Z,6.7562
2023-04-16T12:45:27.131Z,6.9176
2023-04-16T12:46:29.740Z,6.7636
2023-04-16T12:47:32.290Z,6.2636
2023-04-16T12:48:34.838Z,6.4023
2023-04-16T12:49:37.445Z,6.2527
2023-04-16T12:50:39.980Z,7.2209
2023-04-16T12:51:42.595Z,7.1561
2023-04-16T12:52:45.149Z,6.6036
2023-04-16T12:53:47.759Z,6.2802
2023-04-16T12:54:50.324Z,6.4347
2023-04-16T12:55:52.919Z,6.2341
2023-04-16T12:56:55.463Z,6.1517
2023-04-16T12:57:58.078Z,6.3161
2023-04-16T12:59:00.627Z,7.1059
2023-04-16T13:00:03.232Z,7.7581
2023-04-16T13:01:05.786Z,7.2220
2023-04-16T13:02:08.535Z,7.8722